createdAt,value
2019-02-14T00:00:28.770Z,5.60
2019-02-14T00:02:58.877Z,5.50
2019-02-14T00:05:27.792Z,5.54
2019-02-14T00:07:56.709Z,5.61
2019-02-14T00:10:25.729Z,5.57
2019-02-14T00:12:55.463Z,5.50
2019-02-14T00:15:24.429Z,5.47
2019-02-14T00:17:53.365Z,5.85
2019-02-14T00:20:22.344Z,5.66
2019-02-14T00:22:51.489Z,5.66
2019-02-14T00:25:23.510Z,5.60
2019-02-14T00:27:52.515Z,5.66
2019-02-14T00:30:22.094Z,5.63
2019-02-14T00:32:51.241Z,5.67
2019-02-14T00:35:25.030Z,5.62
2019-02-14T00:37:49.720Z,5.52
2019-02-14T00:40:18.782Z,5.54
2019-02-14T00:42:47.963Z,5.50
2019-02-14T00:45:16.899Z,5.51
2019-02-14T00:47:47.711Z,5.47
2019-02-14T00:50:17.064Z,5.50
2019-02-14T00:52:46.374Z,5.50
2019-02-14T00:55:15.560Z,5.48
2019-02-14T00:57:44.944Z,5.48
2019-02-14T01:00:14.203Z,5.55
2019-02-14T01:02:43.566Z,5.52
2019-02-14T01:05:12.805Z,5.90
2019-02-14T01:07:41.718Z,5.72
2019-02-14T01:10:10.722Z,5.67
2019-02-14T01:12:39.645Z,5.70
2019-02-14T01:15:08.699Z,5.66
2019-02-14T01:17:37.634Z,5.64
2019-02-14T01:20:06.664Z,5.62
2019-02-14T01:22:35.884Z,5.64
2019-02-14T01:25:05.236Z,5.63
2019-02-14T01:27:34.164Z,5.60
2019-02-14T01:30:03.179Z,5.58
2019-02-14T01:32:32.971Z,5.89
2019-02-14T01:35:01.910Z,5.70
2019-02-14T01:37:32.070Z,5.92
2019-02-14T01:40:01.655Z,5.56
2019-02-14T01:42:30.637Z,5.86
2019-02-14T01:44:59.666Z,5.50
2019-02-14T01:47:28.706Z,5.29
2019-02-14T01:49:57.602Z,5.24
2019-02-14T01:52:26.591Z,5.11
2019-02-14T01:54:55.580Z,5.07
2019-02-14T01:57:24.538Z,4.99
2019-02-14T01:59:53.525Z,4.94
2019-02-14T02:02:22.781Z,4.84
2019-02-14T02:04:52.887Z,4.79
2019-02-14T02:07:21.934Z,4.85
2019-02-14T02:09:50.992Z,4.92
2019-02-14T02:12:19.958Z,4.85
2019-02-14T02:14:48.859Z,4.80
2019-02-14T02:17:17.743Z,4.75
2019-02-14T02:19:48.279Z,4.82
2019-02-14T02:22:18.430Z,4.80
2019-02-14T02:24:47.670Z,4.83
2019-02-14T02:27:16.688Z,4.73
2019-02-14T02:29:46.758Z,4.70
2019-02-14T02:32:15.711Z,4.71
2019-02-14T02:34:45.490Z,4.70
2019-02-14T02:37:15.608Z,4.72
2019-02-14T02:39:44.835Z,4.70
2019-02-14T02:42:13.832Z,4.64
2019-02-14T02:44:44.301Z,4.64
2019-02-14T02:47:14.786Z,4.65
2019-02-14T02:49:51.507Z,4.67
2019-02-14T02:52:21.150Z,4.59
2019-02-14T02:54:50.117Z,4.68
2019-02-14T02:57:19.350Z,4.65
2019-02-14T02:59:48.852Z,4.67
2019-02-14T03:02:17.751Z,4.70
2019-02-14T03:04:46.802Z,4.68
2019-02-14T03:07:15.769Z,4.66
2019-02-14T03:09:44.798Z,4.67
2019-02-14T03:12:13.695Z,4.72
2019-02-14T03:14:42.616Z,4.70
2019-02-14T03:17:11.529Z,5.11
2019-02-14T03:19:40.469Z,4.94
2019-02-14T03:22:09.421Z,4.85
2019-02-14T03:24:38.682Z,5.24
2019-02-14T03:27:07.676Z,4.90
2019-02-14T03:29:36.846Z,4.79
2019-02-14T03:32:06.345Z,4.79
2019-02-14T03:34:35.496Z,4.68
2019-02-14T03:37:07.629Z,4.64
2019-02-14T03:39:36.966Z,4.71
2019-02-14T03:42:07.977Z,4.67
2019-02-14T03:44:38.913Z,4.61
2019-02-14T03:47:07.966Z,4.60
2019-02-14T03:49:37.918Z,4.59
2019-02-14T03:52:06.862Z,4.59
2019-02-14T03:54:36.160Z,4.58
2019-02-14T03:57:06.159Z,4.64
2019-02-14T03:59:35.396Z,4.61
2019-02-14T04:02:05.426Z,4.63
2019-02-14T04:04:35.043Z,4.59
2019-02-14T04:07:04.137Z,4.62
2019-02-14T04:09:34.338Z,4.61
2019-02-14T04:12:04.313Z,4.72
2019-02-14T04:14:33.606Z,4.73
2019-02-14T04:17:09.085Z,4.73
2019-02-14T04:19:39.244Z,5.06
2019-02-14T04:22:08.239Z,4.75
2019-02-14T04:24:37.279Z,4.75
2019-02-14T04:27:06.573Z,4.71
2019-02-14T04:29:36.302Z,4.73
2019-02-14T04:32:05.329Z,4.70
2019-02-14T04:34:34.241Z,4.63
2019-02-14T04:37:03.676Z,4.57
2019-02-14T04:39:32.967Z,4.52
2019-02-14T04:42:02.303Z,4.51
2019-02-14T04:44:31.684Z,4.48
2019-02-14T04:47:00.951Z,4.45
2019-02-14T04:49:29.973Z,4.81
2019-02-14T04:52:00.805Z,4.53
2019-02-14T04:54:32.517Z,4.45
2019-02-14T04:57:02.074Z,4.41
2019-02-14T04:59:33.590Z,4.42
2019-02-14T05:02:06.064Z,4.38
2019-02-14T05:04:35.392Z,4.72
2019-02-14T05:07:04.955Z,4.48
2019-02-14T05:09:41.217Z,4.28
2019-02-14T05:12:11.093Z,4.21
2019-02-14T05:14:40.387Z,4.57
2019-02-14T05:17:09.367Z,4.35
2019-02-14T05:19:38.728Z,4.66
2019-02-14T05:22:07.661Z,4.41
2019-02-14T05:24:36.702Z,4.36
2019-02-14T05:27:05.736Z,4.25
2019-02-14T05:29:35.051Z,4.18
2019-02-14T05:32:04.036Z,4.14
2019-02-14T05:34:32.961Z,4.05
2019-02-14T05:37:02.573Z,3.96
2019-02-14T05:39:31.507Z,3.87
2019-02-14T05:42:00.566Z,3.86
2019-02-14T05:44:29.511Z,3.77
2019-02-14T05:46:58.841Z,3.70
2019-02-14T05:49:27.814Z,3.74
2019-02-14T05:51:56.785Z,3.71
2019-02-14T05:54:25.740Z,3.66
2019-02-14T05:56:55.808Z,3.62
2019-02-14T05:59:25.071Z,3.60
2019-02-14T06:01:54.043Z,3.65
2019-02-14T06:04:23.641Z,4.00
2019-02-14T06:07:00.768Z,3.73
2019-02-14T06:09:22.045Z,3.73
2019-02-14T06:11:51.139Z,3.66
2019-02-14T06:14:20.043Z,3.69
2019-02-14T06:16:49.131Z,3.63
2019-02-14T06:19:18.348Z,3.55
2019-02-14T06:21:47.439Z,3.55
2019-02-14T06:24:16.609Z,3.52
2019-02-14T06:26:45.899Z,3.55
2019-02-14T06:29:15.742Z,3.61
2019-02-14T06:31:44.708Z,3.61
2019-02-14T06:34:13.914Z,3.60
2019-02-14T06:36:43.086Z,3.50
2019-02-14T06:39:12.218Z,3.46
2019-02-14T06:41:41.148Z,3.50
2019-02-14T06:44:10.166Z,3.51
2019-02-14T06:46:40.277Z,3.57
2019-02-14T06:49:09.573Z,3.57
2019-02-14T06:51:38.758Z,3.65
2019-02-14T06:54:07.796Z,3.67
2019-02-14T06:56:36.966Z,3.66
2019-02-14T06:59:06.164Z,3.57
2019-02-14T07:01:35.364Z,3.61
2019-02-14T07:04:04.489Z,3.63
2019-02-14T07:06:33.798Z,3.69
2019-02-14T07:09:02.959Z,3.70
2019-02-14T07:11:32.191Z,3.70
2019-02-14T07:14:03.670Z,3.76
2019-02-14T07:16:30.755Z,3.78
2019-02-14T07:19:02.490Z,3.65
2019-02-14T07:21:31.697Z,3.68
2019-02-14T07:24:01.036Z,3.71
2019-02-14T07:26:30.197Z,3.79
2019-02-14T07:28:59.628Z,3.89
2019-02-14T07:31:28.842Z,3.89
2019-02-14T07:33:59.866Z,3.94
2019-02-14T07:36:27.312Z,3.99
2019-02-14T07:38:56.627Z,4.06
2019-02-14T07:41:25.640Z,4.08
2019-02-14T07:43:54.789Z,4.11
2019-02-14T07:46:23.903Z,4.17
2019-02-14T07:51:39.851Z,4.81
2019-02-14T07:54:09.188Z,5.04
2019-02-14T07:56:38.567Z,5.24
2019-02-14T07:59:10.821Z,5.38
2019-02-14T08:01:39.922Z,5.09
2019-02-14T08:04:09.141Z,5.08
2019-02-14T08:06:38.447Z,5.17
2019-02-14T08:09:07.829Z,5.55
2019-02-14T08:11:37.383Z,6.00
2019-02-14T08:14:06.776Z,6.66
2019-02-14T08:16:36.216Z,8.25
2019-02-14T08:19:05.607Z,9.19
2019-02-14T08:21:35.498Z,9.02
2019-02-14T08:24:04.854Z,8.09
2019-02-14T08:26:34.008Z,8.04
2019-02-14T08:29:03.360Z,8.21
2019-02-14T08:31:32.437Z,7.97
2019-02-14T08:34:01.640Z,8.07
2019-02-14T08:36:30.655Z,7.65
2019-02-14T08:38:59.823Z,8.00
2019-02-14T08:41:28.916Z,9.75
2019-02-14T08:44:13.554Z,10.69
2019-02-14T08:46:41.258Z,11.07
2019-02-14T08:49:10.547Z,11.72
2019-02-14T08:51:39.825Z,11.92
2019-02-14T08:54:09.756Z,12.28
2019-02-14T08:56:39.003Z,11.73
2019-02-14T08:59:08.449Z,11.80
2019-02-14T09:01:37.802Z,11.79
2019-02-14T09:04:08.912Z,13.08
2019-02-14T09:06:44.043Z,14.25
2019-02-14T09:09:11.745Z,13.28
2019-02-14T09:11:44.042Z,14.69
2019-02-14T09:14:13.224Z,14.44
2019-02-14T09:17:02.503Z,13.24
2019-02-14T09:19:28.185Z,12.19
2019-02-14T09:21:59.888Z,12.30
2019-02-14T09:24:29.148Z,12.29
2019-02-14T09:26:58.425Z,12.53
2019-02-14T09:29:27.730Z,12.80
2019-02-14T09:31:57.047Z,13.57
2019-02-14T09:34:26.216Z,13.77
2019-02-14T09:36:55.438Z,13.97
2019-02-14T09:39:24.638Z,14.09
2019-02-14T09:41:53.737Z,14.28
2019-02-14T09:44:22.918Z,14.94
2019-02-14T09:46:52.109Z,14.30
2019-02-14T09:49:21.336Z,13.45
2019-02-14T09:51:50.563Z,14.26
2019-02-14T09:54:19.867Z,15.30
2019-02-14T09:56:49.138Z,15.98
2019-02-14T09:59:18.311Z,16.93
2019-02-14T10:01:47.420Z,17.62
2019-02-14T10:04:16.595Z,18.02
2019-02-14T10:06:47.995Z,17.68
2019-02-14T10:09:14.636Z,17.51
2019-02-14T10:11:43.744Z,17.23
2019-02-14T10:14:12.789Z,17.17
2019-02-14T10:16:41.859Z,16.21
2019-02-14T10:19:11.040Z,15.83
2019-02-14T10:21:40.486Z,16.23
2019-02-14T10:24:10.215Z,15.50
2019-02-14T10:26:39.484Z,15.02
2019-02-14T10:29:08.710Z,15.36
2019-02-14T10:31:37.915Z,16.13
2019-02-14T10:34:09.584Z,16.54
2019-02-14T10:36:38.810Z,17.18
2019-02-14T10:39:08.050Z,17.30
2019-02-14T10:41:37.261Z,16.15
2019-02-14T10:44:19.223Z,15.63
2019-02-14T10:46:51.224Z,15.15
2019-02-14T10:49:20.403Z,14.93
2019-02-14T10:51:55.574Z,15.53
2019-02-14T10:54:24.558Z,15.90
2019-02-14T10:56:59.310Z,16.56
2019-02-14T10:59:28.531Z,17.16
2019-02-14T11:01:57.713Z,18.07
2019-02-14T11:04:28.984Z,18.17
2019-02-14T11:06:58.136Z,17.94
2019-02-14T11:09:27.221Z,18.12
2019-02-14T11:11:56.305Z,18.41
2019-02-14T11:14:29.256Z,19.34
2019-02-14T11:16:55.917Z,19.17
2019-02-14T11:19:24.931Z,18.44
2019-02-14T11:21:54.328Z,19.59
2019-02-14T11:24:24.338Z,17.72
2019-02-14T11:26:55.531Z,17.27
2019-02-14T11:29:25.905Z,17.33
2019-02-14T11:31:55.039Z,16.58
2019-02-14T11:34:25.820Z,18.07
2019-02-14T11:36:55.066Z,17.93
2019-02-14T11:39:24.108Z,17.85
2019-02-14T11:41:53.338Z,17.90
2019-02-14T11:44:22.846Z,18.29
2019-02-14T11:46:52.164Z,18.85
2019-02-14T11:49:21.864Z,19.30
2019-02-14T11:51:54.744Z,19.08
2019-02-14T11:54:32.347Z,18.90
2019-02-14T11:57:01.466Z,17.88
2019-02-14T11:59:30.439Z,17.23
2019-02-14T12:01:59.429Z,16.73
2019-02-14T12:04:28.498Z,16.38
2019-02-14T12:06:57.682Z,16.05
2019-02-14T12:09:27.094Z,16.48
2019-02-14T12:11:56.214Z,15.69
2019-02-14T12:14:25.304Z,15.37
2019-02-14T12:16:54.232Z,15.32
2019-02-14T12:19:23.316Z,15.25
2019-02-14T12:21:52.414Z,15.13
2019-02-14T12:24:21.488Z,14.86
2019-02-14T12:26:50.694Z,14.87
2019-02-14T12:29:20.113Z,14.75
2019-02-14T12:31:50.022Z,14.64
2019-02-14T12:34:19.323Z,14.58
2019-02-14T12:36:48.419Z,14.56
2019-02-14T12:39:17.547Z,14.58
2019-02-14T12:41:46.625Z,14.57
2019-02-14T12:44:15.667Z,14.59
2019-02-14T12:46:47.704Z,14.50
2019-02-14T12:49:16.754Z,14.32
2019-02-14T12:51:45.746Z,14.49
2019-02-14T12:54:38.702Z,14.61
2019-02-14T12:57:03.834Z,14.66
2019-02-14T12:59:32.952Z,14.74
2019-02-14T13:02:06.881Z,14.81
2019-02-14T13:04:33.839Z,14.80
2019-02-14T13:07:02.905Z,14.75
2019-02-14T13:09:32.000Z,14.75
2019-02-14T13:12:01.076Z,14.69
2019-02-14T13:14:30.141Z,14.75
2019-02-14T13:16:59.230Z,14.86
2019-02-14T13:19:28.377Z,14.77
2019-02-14T13:21:57.426Z,14.81
2019-02-14T13:24:26.851Z,14.78
2019-02-14T13:26:55.905Z,14.57
2019-02-14T13:29:24.981Z,14.59
2019-02-14T13:31:54.008Z,14.58
2019-02-14T13:34:23.064Z,14.62
2019-02-14T13:37:01.028Z,14.66
2019-02-14T13:39:29.383Z,14.61
2019-02-14T13:41:50.181Z,14.81
2019-02-14T13:44:19.184Z,14.85
2019-02-14T13:46:48.195Z,14.78
2019-02-14T13:49:17.167Z,14.90
2019-02-14T13:51:46.204Z,14.83
2019-02-14T13:54:15.261Z,14.98
2019-02-14T13:56:44.273Z,14.93
2019-02-14T13:59:13.306Z,14.90
2019-02-14T14:01:42.349Z,14.94
2019-02-14T14:04:11.769Z,14.87
2019-02-14T14:06:40.771Z,14.87
2019-02-14T14:09:10.158Z,14.67
2019-02-14T14:11:39.250Z,14.66
2019-02-14T14:14:08.249Z,14.53
2019-02-14T14:16:37.328Z,14.51
2019-02-14T14:19:06.739Z,14.45
2019-02-14T14:21:35.429Z,14.46
2019-02-14T14:24:04.499Z,14.36
2019-02-14T14:26:33.514Z,14.48
2019-02-14T14:29:02.541Z,14.53
2019-02-14T14:31:31.557Z,14.37
2019-02-14T14:34:00.590Z,14.32
2019-02-14T14:36:29.648Z,14.61
2019-02-14T14:38:58.764Z,14.41
2019-02-14T14:41:27.817Z,14.43
2019-02-14T14:44:06.607Z,14.48
2019-02-14T14:46:52.294Z,14.35
2019-02-14T14:49:21.378Z,14.23
2019-02-14T14:51:50.540Z,14.21
2019-02-14T14:54:19.597Z,14.28
2019-02-14T14:56:48.691Z,14.32
2019-02-14T14:59:20.595Z,14.31
2019-02-14T15:01:49.699Z,14.32
2019-02-14T15:04:18.738Z,14.25
2019-02-14T15:06:47.869Z,14.23
2019-02-14T15:09:16.926Z,14.15
2019-02-14T15:11:49.091Z,14.08
2019-02-14T15:14:18.173Z,14.05
2019-02-14T15:16:47.268Z,14.01
2019-02-14T15:19:16.469Z,13.93
2019-02-14T15:21:45.505Z,13.90
2019-02-14T15:24:14.608Z,13.92
2019-02-14T15:26:43.685Z,13.84
2019-02-14T15:29:12.729Z,13.79
2019-02-14T15:31:41.825Z,13.78
2019-02-14T15:34:10.925Z,13.71
2019-02-14T15:36:40.169Z,13.64
2019-02-14T15:39:09.221Z,13.53
2019-02-14T15:41:38.432Z,13.41
2019-02-14T15:44:07.397Z,13.28
2019-02-14T15:46:36.558Z,13.20
2019-02-14T15:49:05.592Z,13.16
2019-02-14T15:51:34.963Z,13.04
2019-02-14T15:54:04.104Z,13.18
2019-02-14T15:56:33.520Z,12.93
2019-02-14T15:59:05.274Z,12.82
2019-02-14T16:01:34.560Z,12.76
2019-02-14T16:04:04.923Z,12.69
2019-02-14T16:06:32.896Z,12.58
2019-02-14T16:09:02.789Z,12.51
2019-02-14T16:11:33.839Z,12.42
2019-02-14T16:14:01.141Z,12.34
2019-02-14T16:16:30.272Z,12.24
2019-02-14T16:18:59.391Z,12.13
2019-02-14T16:21:29.519Z,12.01
2019-02-14T16:23:57.762Z,11.94
2019-02-14T16:26:26.934Z,12.14
2019-02-14T16:28:56.226Z,11.90
2019-02-14T16:31:25.363Z,12.11
2019-02-14T16:33:54.557Z,11.83
2019-02-14T16:36:23.736Z,11.71
2019-02-14T16:38:52.945Z,11.64
2019-02-14T16:41:22.072Z,11.53
2019-02-14T16:43:51.664Z,11.63
2019-02-14T16:46:20.869Z,11.32
2019-02-14T16:48:51.510Z,11.15
2019-02-14T16:51:20.770Z,11.15
2019-02-14T16:53:50.516Z,11.06
2019-02-14T16:56:19.702Z,10.93
2019-02-14T16:58:49.751Z,10.83
2019-02-14T17:01:19.665Z,10.78
2019-02-14T17:03:48.837Z,10.83
2019-02-14T17:06:17.931Z,10.53
2019-02-14T17:08:46.981Z,10.37
2019-02-14T17:11:18.186Z,10.16
2019-02-14T17:13:47.371Z,10.31
2019-02-14T17:16:16.511Z,9.96
2019-02-14T17:18:45.615Z,9.83
2019-02-14T17:21:14.811Z,9.72
2019-02-14T17:23:43.968Z,9.56
2019-02-14T17:26:13.029Z,9.43
2019-02-14T17:28:42.205Z,9.43
2019-02-14T17:31:11.683Z,9.30
2019-02-14T17:33:41.199Z,9.19
2019-02-14T17:36:10.463Z,9.07
2019-02-14T17:38:39.534Z,8.96
2019-02-14T17:41:11.878Z,8.86
2019-02-14T17:43:40.885Z,8.80
2019-02-14T17:46:10.017Z,8.73
2019-02-14T17:48:39.151Z,8.53
2019-02-14T17:51:08.254Z,8.46
2019-02-14T17:53:37.442Z,8.44
2019-02-14T17:56:06.474Z,8.35
2019-02-14T17:58:35.581Z,8.22
2019-02-14T18:01:07.627Z,8.11
2019-02-14T18:03:37.121Z,8.05
2019-02-14T18:06:15.053Z,8.11
2019-02-14T18:08:44.239Z,8.27
2019-02-14T18:11:13.385Z,8.01
2019-02-14T18:13:42.587Z,7.97
2019-02-14T18:16:11.576Z,7.84
2019-02-14T18:18:40.726Z,7.66
2019-02-14T18:21:09.752Z,7.47
2019-02-14T18:23:38.863Z,7.39
2019-02-14T18:26:07.959Z,7.20
2019-02-14T18:28:37.095Z,7.04
2019-02-14T18:31:06.142Z,7.02
2019-02-14T18:33:35.296Z,6.96
2019-02-14T18:36:04.286Z,6.85
2019-02-14T18:38:33.385Z,6.78
2019-02-14T18:41:04.393Z,6.74
2019-02-14T18:43:31.504Z,6.70
2019-02-14T18:46:00.615Z,6.69
2019-02-14T18:48:29.679Z,6.66
2019-02-14T18:50:58.853Z,6.69
2019-02-14T18:53:28.940Z,6.67
2019-02-14T18:55:58.018Z,6.65
2019-02-14T18:58:27.165Z,6.65
2019-02-14T19:00:56.252Z,6.63
2019-02-14T19:03:25.414Z,6.60
2019-02-14T19:05:54.413Z,6.63
2019-02-14T19:08:23.470Z,6.76
2019-02-14T19:10:52.630Z,6.78
2019-02-14T19:13:21.726Z,6.82
2019-02-14T19:15:50.834Z,7.06
2019-02-14T19:18:20.015Z,6.88
2019-02-14T19:20:49.140Z,7.15
2019-02-14T19:23:23.892Z,7.23
2019-02-14T19:25:47.341Z,6.93
2019-02-14T19:28:16.407Z,6.73
2019-02-14T19:30:45.504Z,6.59
2019-02-14T19:33:14.593Z,6.48
2019-02-14T19:35:43.658Z,6.37
2019-02-14T19:38:12.743Z,6.24
2019-02-14T19:40:41.836Z,6.12
2019-02-14T19:43:10.895Z,5.97
2019-02-14T19:45:40.042Z,5.91
2019-02-14T19:48:09.098Z,5.87
2019-02-14T19:50:38.217Z,5.83
2019-02-14T19:53:07.321Z,5.76
2019-02-14T19:55:36.436Z,5.77
2019-02-14T19:58:05.552Z,5.91
2019-02-14T20:00:34.630Z,5.98
2019-02-14T20:03:03.748Z,6.07
2019-02-14T20:05:32.736Z,5.99
2019-02-14T20:08:01.881Z,5.87
2019-02-14T20:10:30.936Z,5.82
2019-02-14T20:13:00.057Z,5.76
2019-02-14T20:15:36.889Z,5.82
2019-02-14T20:17:58.243Z,5.73
2019-02-14T20:20:27.301Z,5.59
2019-02-14T20:22:56.439Z,5.45
2019-02-14T20:25:25.407Z,5.37
2019-02-14T20:27:54.515Z,5.31
2019-02-14T20:30:23.626Z,5.30
2019-02-14T20:32:52.744Z,5.36
2019-02-14T20:35:21.779Z,5.32
2019-02-14T20:37:50.969Z,5.28
2019-02-14T20:40:19.965Z,5.21
2019-02-14T20:42:49.077Z,5.18
2019-02-14T20:45:18.164Z,5.16
2019-02-14T20:47:47.274Z,5.09
2019-02-14T20:50:16.480Z,5.42
2019-02-14T20:52:45.564Z,5.49
2019-02-14T20:55:15.560Z,5.60
2019-02-14T20:57:44.765Z,5.40
2019-02-14T21:00:20.185Z,5.17
2019-02-14T21:02:49.204Z,5.03
2019-02-14T21:05:18.409Z,5.10
2019-02-14T21:07:47.475Z,5.11
2019-02-14T21:10:16.604Z,5.20
2019-02-14T21:12:45.650Z,5.09
2019-02-14T21:15:14.770Z,5.09
2019-02-14T21:17:43.823Z,5.07
2019-02-14T21:20:12.959Z,5.00
2019-02-14T21:23:17.416Z,5.00
2019-02-14T21:25:46.691Z,5.02
2019-02-14T21:28:16.165Z,4.88
2019-02-14T21:30:45.269Z,4.80
2019-02-14T21:33:14.425Z,4.80
2019-02-14T21:35:43.526Z,4.92
2019-02-14T21:38:12.736Z,5.00
2019-02-14T21:40:41.737Z,5.35
2019-02-14T21:43:10.839Z,5.12
2019-02-14T21:45:39.953Z,5.10
2019-02-14T21:48:24.510Z,5.09
2019-02-14T21:50:53.695Z,5.24
2019-02-14T21:53:22.710Z,5.26
2019-02-14T21:55:51.843Z,5.22
2019-02-14T21:58:21.217Z,5.08
2019-02-14T22:00:50.289Z,5.07
2019-02-14T22:03:19.423Z,5.15
2019-02-14T22:06:30.434Z,5.16
2019-02-14T22:08:59.566Z,5.21
2019-02-14T22:11:34.017Z,5.23
2019-02-14T22:13:57.821Z,5.30
2019-02-14T22:16:27.066Z,5.71
2019-02-14T22:18:56.186Z,5.60
2019-02-14T22:21:25.201Z,5.65
2019-02-14T22:24:09.326Z,5.76
2019-02-14T22:26:54.298Z,5.86
2019-02-14T22:29:24.617Z,6.27
2019-02-14T22:31:52.638Z,6.50
2019-02-14T22:34:21.743Z,6.31
2019-02-14T22:36:50.903Z,6.35
2019-02-14T22:40:02.116Z,6.43
2019-02-14T22:42:31.209Z,6.55
2019-02-14T22:45:00.399Z,6.64
2019-02-14T22:47:29.451Z,6.75
2019-02-14T22:49:58.562Z,6.82
2019-02-14T22:52:27.772Z,6.88
2019-02-14T22:54:56.883Z,6.92
2019-02-14T22:57:26.080Z,6.95
2019-02-14T22:59:55.198Z,6.97
2019-02-14T23:02:24.332Z,6.97
2019-02-14T23:04:53.479Z,6.91
2019-02-14T23:07:22.547Z,6.84
2019-02-14T23:09:51.673Z,6.80
2019-02-14T23:12:20.779Z,6.85
2019-02-14T23:14:49.861Z,6.82
2019-02-14T23:17:18.931Z,6.76
2019-02-14T23:19:48.093Z,6.72
2019-02-14T23:22:17.089Z,6.76
2019-02-14T23:25:11.144Z,6.87
2019-02-14T23:27:40.274Z,6.93
2019-02-14T23:30:09.582Z,6.95
2019-02-14T23:32:39.329Z,6.98
2019-02-14T23:35:08.496Z,7.05
2019-02-14T23:37:37.611Z,7.09
2019-02-14T23:40:06.826Z,7.11
2019-02-14T23:42:35.935Z,7.11
2019-02-14T23:45:05.262Z,7.13
2019-02-14T23:47:34.299Z,7.16
2019-02-14T23:50:03.528Z,7.17
2019-02-14T23:52:32.679Z,7.20
2019-02-14T23:55:01.834Z,7.18
2019-02-14T23:57:31.033Z,7.16
